CYRJ

Details ICAO CYRJ (YRJ)
Name ROBERVAL
Region Canada
Timezone America/Montreal (UTC-5.0)
Plans Departing 28
Arriving 5
Stats Elevation 586 ft / 179 m (AMSL)
Location 48.520001° -72.265556°
Runways 1
Magnetic Variation 16.084° W
Sunrise 2017-12-18 12:38:05 UTC / 2017-12-18 07:38:05 Local
Sunset 2017-12-18 20:56:09 UTC / 2017-12-18 15:56:09 Local
Advertisement - Login to hide

Runways

ID Width Length Bearing (true) Bearing (mag) Surface Threshold Offset Overrun Length
16 150 ft / 46 m 5,096 ft / 1,553 m 142.69° 158.77° Asphalt 0 ft / 0 m 0 ft / 0 m
34 150 ft / 46 m 5,096 ft / 1,553 m 322.70° 338.78° Asphalt 0 ft / 0 m 0 ft / 0 m

Approach Navaids

Runway Type Ident Frequency Range Bearing (true) Bearing (mag) Slope Elevation
34 Localiser IRJ 110.30 MHz 18 nm / 33 km 321.20° 337.28° - 586 ft / 179 m (AMSL)

Map

Weather


0- 5 10 15 20 25 30 35+ Temperature / ° C

Clouds and Precipitation
Forecast for 2017-12-18 18:00 UTC. Updated 2 hours ago

Ground ~20,000 ft ~40,000 ft Winds

METAR

CYRJ 181500Z 15004KT 40SM SCT075 SCT110 M19/M23 A3001 RMK AC4AC1 AC TR SLP185

TAF

TAF CYRJ 181239Z 1813/1901 VRB03KT P6SM SCT200 BECMG 1817/1819 21008KT FM182100 21005KT P6SM BKN050 RMK NXT FCST BY 182000Z

Frequencies

Tower 122.20 MHz MF
Warning: Do not use this data for real-world aviation or navigation. No guarantee of current accuracy is given.